sensor_id;sensor_type;location;lat;lon;timestamp;temperature;humidity
24800;DHT22;12897;50.812;4.430;2023-06-04T00:01:47;14.90;99.90
24800;DHT22;12897;50.812;4.430;2023-06-04T00:04:16;14.80;99.90
24800;DHT22;12897;50.812;4.430;2023-06-04T00:06:44;14.90;99.90
24800;DHT22;12897;50.812;4.430;2023-06-04T00:09:12;14.90;99.90
24800;DHT22;12897;50.812;4.430;2023-06-04T00:11:39;15.10;99.90
24800;DHT22;12897;50.812;4.430;2023-06-04T00:14:08;15.00;99.90
24800;DHT22;12897;50.812;4.430;2023-06-04T00:16:36;15.00;99.90
24800;DHT22;12897;50.812;4.430;2023-06-04T00:19:04;14.70;99.90
24800;DHT22;12897;50.812;4.430;2023-06-04T00:21:31;14.60;99.90
24800;DHT22;12897;50.812;4.430;2023-06-04T00:24:00;14.50;99.90
24800;DHT22;12897;50.812;4.430;2023-06-04T00:26:28;14.40;99.90
24800;DHT22;12897;50.812;4.430;2023-06-04T00:28:55;14.40;99.90
24800;DHT22;12897;50.812;4.430;2023-06-04T00:31:23;14.40;99.90
24800;DHT22;12897;50.812;4.430;2023-06-04T00:33:51;14.40;99.90
24800;DHT22;12897;50.812;4.430;2023-06-04T00:36:20;14.30;99.90
24800;DHT22;12897;50.812;4.430;2023-06-04T00:38:47;14.40;99.90
24800;DHT22;12897;50.812;4.430;2023-06-04T00:41:15;14.30;99.90
24800;DHT22;12897;50.812;4.430;2023-06-04T00:43:44;14.20;99.90
24800;DHT22;12897;50.812;4.430;2023-06-04T00:46:14;14.20;99.90
24800;DHT22;12897;50.812;4.430;2023-06-04T00:48:43;14.20;99.90
24800;DHT22;12897;50.812;4.430;2023-06-04T00:51:21;14.20;99.90
24800;DHT22;12897;50.812;4.430;2023-06-04T00:56:41;14.10;99.90
24800;DHT22;12897;50.812;4.430;2023-06-04T00:59:09;14.10;99.90
24800;DHT22;12897;50.812;4.430;2023-06-04T01:04:27;14.10;99.90
24800;DHT22;12897;50.812;4.430;2023-06-04T01:06:45;14.10;99.90
24800;DHT22;12897;50.812;4.430;2023-06-04T01:09:21;14.20;99.90
24800;DHT22;12897;50.812;4.430;2023-06-04T01:11:51;14.20;99.90
24800;DHT22;12897;50.812;4.430;2023-06-04T01:14:25;14.10;99.90
24800;DHT22;12897;50.812;4.430;2023-06-04T01:22:38;14.20;99.90
24800;DHT22;12897;50.812;4.430;2023-06-04T01:25:09;14.30;99.90
24800;DHT22;12897;50.812;4.430;2023-06-04T01:27:36;14.30;99.90
24800;DHT22;12897;50.812;4.430;2023-06-04T01:30:07;14.20;99.90
24800;DHT22;12897;50.812;4.430;2023-06-04T01:32:41;14.20;99.90
24800;DHT22;12897;50.812;4.430;2023-06-04T01:35:17;14.30;99.90
24800;DHT22;12897;50.812;4.430;2023-06-04T01:37:54;14.20;99.90
24800;DHT22;12897;50.812;4.430;2023-06-04T01:40:29;14.10;99.90
24800;DHT22;12897;50.812;4.430;2023-06-04T01:43:05;14.20;99.90
24800;DHT22;12897;50.812;4.430;2023-06-04T01:45:43;14.20;99.90
24800;DHT22;12897;50.812;4.430;2023-06-04T01:48:19;14.20;99.90
24800;DHT22;12897;50.812;4.430;2023-06-04T01:50:54;14.10;99.90
24800;DHT22;12897;50.812;4.430;2023-06-04T01:53:30;14.20;99.90
24800;DHT22;12897;50.812;4.430;2023-06-04T01:56:08;14.20;99.90
24800;DHT22;12897;50.812;4.430;2023-06-04T01:58:42;14.00;99.90
24800;DHT22;12897;50.812;4.430;2023-06-04T02:01:18;13.90;99.90
24800;DHT22;12897;50.812;4.430;2023-06-04T02:03:54;13.90;99.90
24800;DHT22;12897;50.812;4.430;2023-06-04T02:06:31;13.90;99.90
24800;DHT22;12897;50.812;4.430;2023-06-04T02:09:06;13.70;99.90
24800;DHT22;12897;50.812;4.430;2023-06-04T02:11:40;13.80;99.90
24800;DHT22;12897;50.812;4.430;2023-06-04T02:14:18;13.80;99.90
24800;DHT22;12897;50.812;4.430;2023-06-04T02:16:54;13.90;99.90
24800;DHT22;12897;50.812;4.430;2023-06-04T02:19:27;13.80;99.90
24800;DHT22;12897;50.812;4.430;2023-06-04T02:21:55;13.70;99.90
24800;DHT22;12897;50.812;4.430;2023-06-04T02:24:22;13.80;99.90
24800;DHT22;12897;50.812;4.430;2023-06-04T02:26:50;13.80;99.90
24800;DHT22;12897;50.812;4.430;2023-06-04T02:29:17;13.80;99.90
24800;DHT22;12897;50.812;4.430;2023-06-04T02:31:45;13.70;99.90
24800;DHT22;12897;50.812;4.430;2023-06-04T02:34:12;13.60;99.90
24800;DHT22;12897;50.812;4.430;2023-06-04T02:36:40;13.70;99.90
24800;DHT22;12897;50.812;4.430;2023-06-04T02:39:09;13.70;99.90
24800;DHT22;12897;50.812;4.430;2023-06-04T02:41:36;13.60;99.90
24800;DHT22;12897;50.812;4.430;2023-06-04T02:44:04;13.60;99.90
24800;DHT22;12897;50.812;4.430;2023-06-04T02:46:32;13.70;99.90
24800;DHT22;12897;50.812;4.430;2023-06-04T02:48:59;13.70;99.90
24800;DHT22;12897;50.812;4.430;2023-06-04T02:51:27;13.70;99.90
24800;DHT22;12897;50.812;4.430;2023-06-04T02:53:55;13.60;99.90
24800;DHT22;12897;50.812;4.430;2023-06-04T02:56:22;13.60;99.90
24800;DHT22;12897;50.812;4.430;2023-06-04T02:58:54;13.60;99.90
24800;DHT22;12897;50.812;4.430;2023-06-04T03:01:23;13.60;99.90
24800;DHT22;12897;50.812;4.430;2023-06-04T03:03:52;13.60;99.90
24800;DHT22;12897;50.812;4.430;2023-06-04T03:06:23;13.40;99.90
24800;DHT22;12897;50.812;4.430;2023-06-04T03:09:00;13.40;99.90
24800;DHT22;12897;50.812;4.430;2023-06-04T03:11:34;13.40;99.90
24800;DHT22;12897;50.812;4.430;2023-06-04T03:14:10;13.30;99.90
24800;DHT22;12897;50.812;4.430;2023-06-04T03:16:45;13.30;99.90
24800;DHT22;12897;50.812;4.430;2023-06-04T03:19:22;13.40;99.90
24800;DHT22;12897;50.812;4.430;2023-06-04T03:21:50;13.30;99.90
24800;DHT22;12897;50.812;4.430;2023-06-04T03:24:18;13.20;99.90
24800;DHT22;12897;50.812;4.430;2023-06-04T03:26:46;13.10;99.90
24800;DHT22;12897;50.812;4.430;2023-06-04T03:29:15;13.20;99.90
24800;DHT22;12897;50.812;4.430;2023-06-04T03:31:44;13.10;99.90
24800;DHT22;12897;50.812;4.430;2023-06-04T03:34:12;13.10;99.90
24800;DHT22;12897;50.812;4.430;2023-06-04T03:36:40;13.20;99.90
24800;DHT22;12897;50.812;4.430;2023-06-04T03:39:09;13.20;99.90
24800;DHT22;12897;50.812;4.430;2023-06-04T03:41:36;13.20;99.90
24800;DHT22;12897;50.812;4.430;2023-06-04T03:44:04;13.20;99.90
24800;DHT22;12897;50.812;4.430;2023-06-04T03:46:31;13.20;99.90
24800;DHT22;12897;50.812;4.430;2023-06-04T03:49:00;13.10;99.90
24800;DHT22;12897;50.812;4.430;2023-06-04T03:51:27;13.00;99.90
24800;DHT22;12897;50.812;4.430;2023-06-04T03:53:55;13.10;99.90
24800;DHT22;12897;50.812;4.430;2023-06-04T03:56:23;13.10;99.90
24800;DHT22;12897;50.812;4.430;2023-06-04T03:58:50;13.10;99.90
24800;DHT22;12897;50.812;4.430;2023-06-04T04:01:18;13.10;99.90
24800;DHT22;12897;50.812;4.430;2023-06-04T04:03:45;13.20;99.90
24800;DHT22;12897;50.812;4.430;2023-06-04T04:06:16;13.20;99.90
24800;DHT22;12897;50.812;4.430;2023-06-04T04:08:46;13.30;99.90
24800;DHT22;12897;50.812;4.430;2023-06-04T04:11:26;13.40;99.90
24800;DHT22;12897;50.812;4.430;2023-06-04T04:14:00;13.30;99.90
24800;DHT22;12897;50.812;4.430;2023-06-04T04:16:37;13.20;99.90
24800;DHT22;12897;50.812;4.430;2023-06-04T04:19:13;13.40;99.90
24800;DHT22;12897;50.812;4.430;2023-06-04T04:21:49;13.30;99.90
24800;DHT22;12897;50.812;4.430;2023-06-04T04:24:25;13.30;99.90
24800;DHT22;12897;50.812;4.430;2023-06-04T04:27:02;13.30;99.90
24800;DHT22;12897;50.812;4.430;2023-06-04T04:29:38;13.40;99.90
24800;DHT22;12897;50.812;4.430;2023-06-04T04:32:15;13.40;99.90
24800;DHT22;12897;50.812;4.430;2023-06-04T04:34:56;13.50;99.90
24800;DHT22;12897;50.812;4.430;2023-06-04T04:37:23;13.50;99.90
24800;DHT22;12897;50.812;4.430;2023-06-04T04:40:06;13.50;99.90
24800;DHT22;12897;50.812;4.430;2023-06-04T04:42:37;13.60;99.90
24800;DHT22;12897;50.812;4.430;2023-06-04T04:45:14;13.60;99.90
24800;DHT22;12897;50.812;4.430;2023-06-04T04:47:48;13.60;99.90
24800;DHT22;12897;50.812;4.430;2023-06-04T04:50:25;13.60;99.90
24800;DHT22;12897;50.812;4.430;2023-06-04T04:53:01;13.70;99.90
24800;DHT22;12897;50.812;4.430;2023-06-04T04:55:35;13.50;99.90
24800;DHT22;12897;50.812;4.430;2023-06-04T04:58:02;13.50;99.90
24800;DHT22;12897;50.812;4.430;2023-06-04T05:00:30;13.60;99.90
24800;DHT22;12897;50.812;4.430;2023-06-04T05:02:57;13.60;99.90
24800;DHT22;12897;50.812;4.430;2023-06-04T05:05:25;13.70;99.90
24800;DHT22;12897;50.812;4.430;2023-06-04T05:07:52;13.80;99.90
24800;DHT22;12897;50.812;4.430;2023-06-04T05:10:20;13.80;99.90
24800;DHT22;12897;50.812;4.430;2023-06-04T05:12:59;13.90;99.90
24800;DHT22;12897;50.812;4.430;2023-06-04T05:15:24;14.00;99.90
24800;DHT22;12897;50.812;4.430;2023-06-04T05:17:53;14.30;99.90
24800;DHT22;12897;50.812;4.430;2023-06-04T05:20:22;15.20;99.90
24800;DHT22;12897;50.812;4.430;2023-06-04T05:22:51;16.40;99.90
24800;DHT22;12897;50.812;4.430;2023-06-04T05:25:19;17.10;99.90
24800;DHT22;12897;50.812;4.430;2023-06-04T05:27:48;17.80;99.90
24800;DHT22;12897;50.812;4.430;2023-06-04T05:30:16;18.50;99.90
24800;DHT22;12897;50.812;4.430;2023-06-04T05:32:44;19.00;99.90
24800;DHT22;12897;50.812;4.430;2023-06-04T05:35:11;19.50;99.90
24800;DHT22;12897;50.812;4.430;2023-06-04T05:37:39;19.20;99.90
24800;DHT22;12897;50.812;4.430;2023-06-04T05:40:10;19.40;99.90
24800;DHT22;12897;50.812;4.430;2023-06-04T05:42:38;19.10;99.90
24800;DHT22;12897;50.812;4.430;2023-06-04T05:45:07;19.40;99.90
24800;DHT22;12897;50.812;4.430;2023-06-04T05:47:45;19.20;99.90
24800;DHT22;12897;50.812;4.430;2023-06-04T05:50:12;18.90;99.90
24800;DHT22;12897;50.812;4.430;2023-06-04T05:52:40;19.00;99.90
24800;DHT22;12897;50.812;4.430;2023-06-04T05:55:08;19.20;99.90
24800;DHT22;12897;50.812;4.430;2023-06-04T05:57:36;19.40;99.90
24800;DHT22;12897;50.812;4.430;2023-06-04T06:00:04;19.70;99.90
24800;DHT22;12897;50.812;4.430;2023-06-04T06:02:38;20.10;99.90
24800;DHT22;12897;50.812;4.430;2023-06-04T06:05:05;20.00;99.90
24800;DHT22;12897;50.812;4.430;2023-06-04T06:07:36;20.20;99.90
24800;DHT22;12897;50.812;4.430;2023-06-04T06:10:04;20.40;98.90
24800;DHT22;12897;50.812;4.430;2023-06-04T06:12:32;20.40;98.60
24800;DHT22;12897;50.812;4.430;2023-06-04T06:15:00;20.00;98.80
24800;DHT22;12897;50.812;4.430;2023-06-04T06:17:27;19.90;99.00
24800;DHT22;12897;50.812;4.430;2023-06-04T06:19:55;19.80;98.90
24800;DHT22;12897;50.812;4.430;2023-06-04T06:22:23;19.70;98.90
24800;DHT22;12897;50.812;4.430;2023-06-04T06:24:50;19.60;99.20
24800;DHT22;12897;50.812;4.430;2023-06-04T06:27:18;19.60;99.40
24800;DHT22;12897;50.812;4.430;2023-06-04T06:29:45;19.30;99.20
24800;DHT22;12897;50.812;4.430;2023-06-04T06:32:13;18.90;99.90
24800;DHT22;12897;50.812;4.430;2023-06-04T06:35:00;18.70;99.90
24800;DHT22;12897;50.812;4.430;2023-06-04T06:37:29;18.80;99.90
24800;DHT22;12897;50.812;4.430;2023-06-04T06:39:57;18.70;99.90
24800;DHT22;12897;50.812;4.430;2023-06-04T06:42:25;18.90;99.90
24800;DHT22;12897;50.812;4.430;2023-06-04T06:44:54;19.20;99.90
24800;DHT22;12897;50.812;4.430;2023-06-04T06:47:23;19.30;99.90
24800;DHT22;12897;50.812;4.430;2023-06-04T06:49:51;19.10;99.70
24800;DHT22;12897;50.812;4.430;2023-06-04T06:52:19;19.00;99.90
24800;DHT22;12897;50.812;4.430;2023-06-04T06:54:48;19.00;99.80
24800;DHT22;12897;50.812;4.430;2023-06-04T06:57:15;18.80;99.90
24800;DHT22;12897;50.812;4.430;2023-06-04T06:59:45;18.70;99.90
24800;DHT22;12897;50.812;4.430;2023-06-04T07:02:12;18.90;99.90
24800;DHT22;12897;50.812;4.430;2023-06-04T07:04:41;18.40;99.90
24800;DHT22;12897;50.812;4.430;2023-06-04T07:07:09;18.60;99.90
24800;DHT22;12897;50.812;4.430;2023-06-04T07:09:37;18.80;99.90
24800;DHT22;12897;50.812;4.430;2023-06-04T07:12:06;18.80;99.90
24800;DHT22;12897;50.812;4.430;2023-06-04T07:14:34;19.00;99.90
24800;DHT22;12897;50.812;4.430;2023-06-04T07:17:02;18.70;99.90
24800;DHT22;12897;50.812;4.430;2023-06-04T07:19:29;18.60;99.90
24800;DHT22;12897;50.812;4.430;2023-06-04T07:21:57;18.70;99.90
24800;DHT22;12897;50.812;4.430;2023-06-04T07:24:26;18.70;99.90
24800;DHT22;12897;50.812;4.430;2023-06-04T07:26:53;18.60;99.90
24800;DHT22;12897;50.812;4.430;2023-06-04T07:29:22;18.70;99.90
24800;DHT22;12897;50.812;4.430;2023-06-04T07:31:50;18.60;99.90
24800;DHT22;12897;50.812;4.430;2023-06-04T07:34:17;18.50;99.90
24800;DHT22;12897;50.812;4.430;2023-06-04T07:36:45;18.50;99.90
24800;DHT22;12897;50.812;4.430;2023-06-04T07:39:12;18.40;99.90
24800;DHT22;12897;50.812;4.430;2023-06-04T07:41:40;18.50;99.90
24800;DHT22;12897;50.812;4.430;2023-06-04T07:44:07;18.70;99.90
24800;DHT22;12897;50.812;4.430;2023-06-04T07:46:43;18.40;99.90
24800;DHT22;12897;50.812;4.430;2023-06-04T07:49:11;18.30;99.90
24800;DHT22;12897;50.812;4.430;2023-06-04T07:51:39;18.40;99.90
24800;DHT22;12897;50.812;4.430;2023-06-04T07:54:08;18.60;99.90
24800;DHT22;12897;50.812;4.430;2023-06-04T07:56:35;18.40;99.90
24800;DHT22;12897;50.812;4.430;2023-06-04T07:59:03;18.50;99.90
24800;DHT22;12897;50.812;4.430;2023-06-04T08:01:32;18.60;99.90
24800;DHT22;12897;50.812;4.430;2023-06-04T08:03:59;18.50;99.90
24800;DHT22;12897;50.812;4.430;2023-06-04T08:06:27;18.50;99.90
24800;DHT22;12897;50.812;4.430;2023-06-04T08:08:56;18.30;99.90
24800;DHT22;12897;50.812;4.430;2023-06-04T08:11:23;18.40;99.90
24800;DHT22;12897;50.812;4.430;2023-06-04T08:13:51;18.60;99.90
24800;DHT22;12897;50.812;4.430;2023-06-04T08:16:18;18.70;99.90
24800;DHT22;12897;50.812;4.430;2023-06-04T08:18:46;18.60;99.90
24800;DHT22;12897;50.812;4.430;2023-06-04T08:21:14;18.80;99.90
24800;DHT22;12897;50.812;4.430;2023-06-04T08:23:43;19.00;99.90
24800;DHT22;12897;50.812;4.430;2023-06-04T08:26:11;18.90;99.70
24800;DHT22;12897;50.812;4.430;2023-06-04T08:28:39;18.70;99.90
24800;DHT22;12897;50.812;4.430;2023-06-04T08:31:06;18.70;99.90
24800;DHT22;12897;50.812;4.430;2023-06-04T08:33:34;18.90;99.90
24800;DHT22;12897;50.812;4.430;2023-06-04T08:36:01;19.20;99.60
24800;DHT22;12897;50.812;4.430;2023-06-04T08:38:29;19.30;98.80
24800;DHT22;12897;50.812;4.430;2023-06-04T08:43:27;19.30;97.60
24800;DHT22;12897;50.812;4.430;2023-06-04T08:45:59;19.20;98.40
24800;DHT22;12897;50.812;4.430;2023-06-04T08:48:31;19.40;96.60
24800;DHT22;12897;50.812;4.430;2023-06-04T08:51:02;19.60;96.70
24800;DHT22;12897;50.812;4.430;2023-06-04T08:53:32;19.50;95.10
24800;DHT22;12897;50.812;4.430;2023-06-04T08:56:00;19.30;95.10
24800;DHT22;12897;50.812;4.430;2023-06-04T08:58:30;19.50;95.80
24800;DHT22;12897;50.812;4.430;2023-06-04T09:01:00;19.70;95.00
24800;DHT22;12897;50.812;4.430;2023-06-04T09:03:29;19.90;93.90
24800;DHT22;12897;50.812;4.430;2023-06-04T09:06:02;20.00;93.10
24800;DHT22;12897;50.812;4.430;2023-06-04T09:08:39;20.10;93.40
24800;DHT22;12897;50.812;4.430;2023-06-04T09:11:28;20.00;92.60
24800;DHT22;12897;50.812;4.430;2023-06-04T09:13:57;19.80;92.60
24800;DHT22;12897;50.812;4.430;2023-06-04T09:16:26;19.80;92.10
24800;DHT22;12897;50.812;4.430;2023-06-04T09:18:56;19.80;92.20
24800;DHT22;12897;50.812;4.430;2023-06-04T09:21:25;20.00;91.90
24800;DHT22;12897;50.812;4.430;2023-06-04T09:23:52;20.00;91.60
24800;DHT22;12897;50.812;4.430;2023-06-04T09:26:21;20.10;91.70
24800;DHT22;12897;50.812;4.430;2023-06-04T09:28:49;20.20;91.70
24800;DHT22;12897;50.812;4.430;2023-06-04T09:31:22;20.10;91.10
24800;DHT22;12897;50.812;4.430;2023-06-04T09:33:51;20.00;91.00
24800;DHT22;12897;50.812;4.430;2023-06-04T09:36:18;20.00;90.50
24800;DHT22;12897;50.812;4.430;2023-06-04T09:38:46;20.20;90.90
24800;DHT22;12897;50.812;4.430;2023-06-04T09:41:16;20.30;90.40
24800;DHT22;12897;50.812;4.430;2023-06-04T09:43:45;20.50;90.60
24800;DHT22;12897;50.812;4.430;2023-06-04T09:46:15;20.60;90.00
24800;DHT22;12897;50.812;4.430;2023-06-04T09:48:43;20.70;88.60
24800;DHT22;12897;50.812;4.430;2023-06-04T09:51:16;20.70;88.30
24800;DHT22;12897;50.812;4.430;2023-06-04T09:53:56;20.80;87.30
24800;DHT22;12897;50.812;4.430;2023-06-04T09:56:25;20.70;85.70
24800;DHT22;12897;50.812;4.430;2023-06-04T09:58:54;20.40;85.60
24800;DHT22;12897;50.812;4.430;2023-06-04T10:01:24;20.60;84.60
24800;DHT22;12897;50.812;4.430;2023-06-04T10:03:53;20.70;84.80
24800;DHT22;12897;50.812;4.430;2023-06-04T10:06:23;20.80;82.90
24800;DHT22;12897;50.812;4.430;2023-06-04T10:08:53;20.90;83.00
24800;DHT22;12897;50.812;4.430;2023-06-04T10:11:31;20.90;80.80
24800;DHT22;12897;50.812;4.430;2023-06-04T10:14:05;20.90;81.00
24800;DHT22;12897;50.812;4.430;2023-06-04T10:16:28;20.60;79.80
24800;DHT22;12897;50.812;4.430;2023-06-04T10:18:57;20.70;80.20
24800;DHT22;12897;50.812;4.430;2023-06-04T10:21:26;20.90;80.60
24800;DHT22;12897;50.812;4.430;2023-06-04T10:23:57;20.90;80.60
24800;DHT22;12897;50.812;4.430;2023-06-04T10:26:25;21.00;81.00
24800;DHT22;12897;50.812;4.430;2023-06-04T10:28:53;21.10;79.00
24800;DHT22;12897;50.812;4.430;2023-06-04T10:31:25;21.20;75.70
24800;DHT22;12897;50.812;4.430;2023-06-04T10:33:55;21.20;75.40
24800;DHT22;12897;50.812;4.430;2023-06-04T10:36:24;21.30;76.20
24800;DHT22;12897;50.812;4.430;2023-06-04T10:38:53;21.40;75.80
24800;DHT22;12897;50.812;4.430;2023-06-04T10:41:22;21.30;75.00
24800;DHT22;12897;50.812;4.430;2023-06-04T10:43:51;21.20;75.10
24800;DHT22;12897;50.812;4.430;2023-06-04T10:46:20;21.10;76.10
24800;DHT22;12897;50.812;4.430;2023-06-04T10:48:52;21.10;75.90
24800;DHT22;12897;50.812;4.430;2023-06-04T10:51:30;21.20;74.80
24800;DHT22;12897;50.812;4.430;2023-06-04T10:54:02;21.20;74.20
24800;DHT22;12897;50.812;4.430;2023-06-04T10:56:32;21.20;73.40
24800;DHT22;12897;50.812;4.430;2023-06-04T10:59:17;21.20;73.00
24800;DHT22;12897;50.812;4.430;2023-06-04T11:01:46;21.30;72.90
24800;DHT22;12897;50.812;4.430;2023-06-04T11:04:24;21.50;72.50
24800;DHT22;12897;50.812;4.430;2023-06-04T11:07:05;21.50;71.90
24800;DHT22;12897;50.812;4.430;2023-06-04T11:09:49;21.40;69.60
24800;DHT22;12897;50.812;4.430;2023-06-04T11:12:17;21.40;69.70
24800;DHT22;12897;50.812;4.430;2023-06-04T11:14:57;21.60;70.50
24800;DHT22;12897;50.812;4.430;2023-06-04T11:17:26;21.90;68.60
24800;DHT22;12897;50.812;4.430;2023-06-04T11:19:53;22.00;68.70
24800;DHT22;12897;50.812;4.430;2023-06-04T11:22:21;22.00;66.20
24800;DHT22;12897;50.812;4.430;2023-06-04T11:25:08;21.90;68.50
24800;DHT22;12897;50.812;4.430;2023-06-04T11:27:36;22.00;67.40
24800;DHT22;12897;50.812;4.430;2023-06-04T11:30:08;21.80;67.30
24800;DHT22;12897;50.812;4.430;2023-06-04T11:32:38;21.60;68.50
24800;DHT22;12897;50.812;4.430;2023-06-04T11:35:07;21.60;69.40
24800;DHT22;12897;50.812;4.430;2023-06-04T11:37:36;21.90;67.90
24800;DHT22;12897;50.812;4.430;2023-06-04T11:40:15;22.10;66.70
24800;DHT22;12897;50.812;4.430;2023-06-04T11:42:44;22.20;65.70
24800;DHT22;12897;50.812;4.430;2023-06-04T11:45:17;21.90;66.90
24800;DHT22;12897;50.812;4.430;2023-06-04T11:47:47;21.60;68.40
24800;DHT22;12897;50.812;4.430;2023-06-04T11:50:14;21.60;67.20
24800;DHT22;12897;50.812;4.430;2023-06-04T11:52:42;21.60;66.00
24800;DHT22;12897;50.812;4.430;2023-06-04T11:55:11;21.90;64.90
24800;DHT22;12897;50.812;4.430;2023-06-04T11:57:50;22.10;61.80
24800;DHT22;12897;50.812;4.430;2023-06-04T12:00:18;22.10;61.60
24800;DHT22;12897;50.812;4.430;2023-06-04T12:02:55;22.00;62.90
24800;DHT22;12897;50.812;4.430;2023-06-04T12:05:32;22.20;61.00
24800;DHT22;12897;50.812;4.430;2023-06-04T12:08:07;22.30;61.40
24800;DHT22;12897;50.812;4.430;2023-06-04T12:10:39;22.20;60.30
24800;DHT22;12897;50.812;4.430;2023-06-04T12:13:08;22.10;62.10
24800;DHT22;12897;50.812;4.430;2023-06-04T12:15:36;22.10;61.40
24800;DHT22;12897;50.812;4.430;2023-06-04T12:18:05;22.20;61.60
24800;DHT22;12897;50.812;4.430;2023-06-04T12:20:35;22.20;60.70
24800;DHT22;12897;50.812;4.430;2023-06-04T12:23:05;22.30;59.70
24800;DHT22;12897;50.812;4.430;2023-06-04T12:25:34;22.30;59.50
24800;DHT22;12897;50.812;4.430;2023-06-04T12:28:03;22.20;59.70
24800;DHT22;12897;50.812;4.430;2023-06-04T12:30:36;22.20;60.40
24800;DHT22;12897;50.812;4.430;2023-06-04T12:33:04;22.40;59.90
24800;DHT22;12897;50.812;4.430;2023-06-04T12:35:34;22.40;58.10
24800;DHT22;12897;50.812;4.430;2023-06-04T12:38:03;22.50;57.60
24800;DHT22;12897;50.812;4.430;2023-06-04T12:40:31;22.60;58.90
24800;DHT22;12897;50.812;4.430;2023-06-04T12:43:00;22.40;59.50
24800;DHT22;12897;50.812;4.430;2023-06-04T12:45:28;22.60;60.00
24800;DHT22;12897;50.812;4.430;2023-06-04T12:47:57;22.60;59.60
24800;DHT22;12897;50.812;4.430;2023-06-04T12:50:24;22.80;58.40
24800;DHT22;12897;50.812;4.430;2023-06-04T12:52:52;22.90;58.00
24800;DHT22;12897;50.812;4.430;2023-06-04T12:55:19;22.90;58.90
24800;DHT22;12897;50.812;4.430;2023-06-04T12:57:47;23.00;58.40
24800;DHT22;12897;50.812;4.430;2023-06-04T13:00:15;23.00;59.10
24800;DHT22;12897;50.812;4.430;2023-06-04T13:02:43;23.00;60.60
24800;DHT22;12897;50.812;4.430;2023-06-04T13:05:10;23.00;59.50
24800;DHT22;12897;50.812;4.430;2023-06-04T13:07:38;23.00;58.20
24800;DHT22;12897;50.812;4.430;2023-06-04T13:10:11;22.70;58.60
24800;DHT22;12897;50.812;4.430;2023-06-04T13:12:44;22.90;58.40
24800;DHT22;12897;50.812;4.430;2023-06-04T13:15:13;23.00;57.90
24800;DHT22;12897;50.812;4.430;2023-06-04T13:17:40;23.00;57.60
24800;DHT22;12897;50.812;4.430;2023-06-04T13:20:08;23.00;58.90
24800;DHT22;12897;50.812;4.430;2023-06-04T13:22:36;23.10;57.70
24800;DHT22;12897;50.812;4.430;2023-06-04T13:25:04;23.20;58.30
24800;DHT22;12897;50.812;4.430;2023-06-04T13:27:31;23.20;58.90
24800;DHT22;12897;50.812;4.430;2023-06-04T13:29:59;23.20;58.60
24800;DHT22;12897;50.812;4.430;2023-06-04T13:32:27;23.20;58.60
24800;DHT22;12897;50.812;4.430;2023-06-04T13:34:55;23.20;58.10
24800;DHT22;12897;50.812;4.430;2023-06-04T13:37:23;23.40;56.90
24800;DHT22;12897;50.812;4.430;2023-06-04T13:39:52;23.40;57.10
24800;DHT22;12897;50.812;4.430;2023-06-04T13:42:19;23.10;56.90
24800;DHT22;12897;50.812;4.430;2023-06-04T13:44:48;23.10;57.90
24800;DHT22;12897;50.812;4.430;2023-06-04T13:47:17;23.10;58.20
24800;DHT22;12897;50.812;4.430;2023-06-04T13:49:45;23.20;56.80
24800;DHT22;12897;50.812;4.430;2023-06-04T13:52:12;23.10;57.30
24800;DHT22;12897;50.812;4.430;2023-06-04T13:54:41;23.20;57.10
24800;DHT22;12897;50.812;4.430;2023-06-04T13:57:08;23.40;57.40
24800;DHT22;12897;50.812;4.430;2023-06-04T13:59:39;23.30;56.90
24800;DHT22;12897;50.812;4.430;2023-06-04T14:02:08;23.30;57.00
24800;DHT22;12897;50.812;4.430;2023-06-04T14:04:37;23.40;56.40
24800;DHT22;12897;50.812;4.430;2023-06-04T14:07:05;23.40;56.70
24800;DHT22;12897;50.812;4.430;2023-06-04T14:09:37;23.40;57.20
24800;DHT22;12897;50.812;4.430;2023-06-04T14:12:05;23.50;56.30
24800;DHT22;12897;50.812;4.430;2023-06-04T14:14:33;23.50;55.50
24800;DHT22;12897;50.812;4.430;2023-06-04T14:17:06;23.40;55.30
24800;DHT22;12897;50.812;4.430;2023-06-04T14:19:33;23.20;55.40
24800;DHT22;12897;50.812;4.430;2023-06-04T14:22:02;23.10;55.40
24800;DHT22;12897;50.812;4.430;2023-06-04T14:24:29;23.00;55.30
24800;DHT22;12897;50.812;4.430;2023-06-04T14:26:57;23.10;56.30
24800;DHT22;12897;50.812;4.430;2023-06-04T14:29:24;23.30;56.00
24800;DHT22;12897;50.812;4.430;2023-06-04T14:31:52;23.50;55.00
24800;DHT22;12897;50.812;4.430;2023-06-04T14:34:20;23.60;55.00
24800;DHT22;12897;50.812;4.430;2023-06-04T14:36:48;23.70;54.00
24800;DHT22;12897;50.812;4.430;2023-06-04T14:39:16;23.50;54.10
24800;DHT22;12897;50.812;4.430;2023-06-04T14:41:44;23.50;53.00
24800;DHT22;12897;50.812;4.430;2023-06-04T14:44:11;23.50;53.50
24800;DHT22;12897;50.812;4.430;2023-06-04T14:46:40;23.60;54.20
24800;DHT22;12897;50.812;4.430;2023-06-04T14:49:07;23.60;53.80
24800;DHT22;12897;50.812;4.430;2023-06-04T14:51:35;23.60;53.00
24800;DHT22;12897;50.812;4.430;2023-06-04T14:54:10;23.70;53.40
24800;DHT22;12897;50.812;4.430;2023-06-04T14:56:38;23.60;52.60
24800;DHT22;12897;50.812;4.430;2023-06-04T14:59:07;23.70;53.30
24800;DHT22;12897;50.812;4.430;2023-06-04T15:01:39;23.60;53.30
24800;DHT22;12897;50.812;4.430;2023-06-04T15:04:07;23.90;53.70
24800;DHT22;12897;50.812;4.430;2023-06-04T15:06:35;24.00;52.50
24800;DHT22;12897;50.812;4.430;2023-06-04T15:09:03;24.00;51.40
24800;DHT22;12897;50.812;4.430;2023-06-04T15:11:33;23.90;51.50
24800;DHT22;12897;50.812;4.430;2023-06-04T15:14:00;23.90;51.30
24800;DHT22;12897;50.812;4.430;2023-06-04T15:16:47;23.80;51.60
24800;DHT22;12897;50.812;4.430;2023-06-04T15:19:14;23.70;51.80
24800;DHT22;12897;50.812;4.430;2023-06-04T15:21:42;23.60;51.20
24800;DHT22;12897;50.812;4.430;2023-06-04T15:24:10;23.70;51.50
24800;DHT22;12897;50.812;4.430;2023-06-04T15:26:39;23.80;51.30
24800;DHT22;12897;50.812;4.430;2023-06-04T15:29:06;23.90;50.20
24800;DHT22;12897;50.812;4.430;2023-06-04T15:31:34;23.90;50.00
24800;DHT22;12897;50.812;4.430;2023-06-04T15:34:21;24.00;50.40
24800;DHT22;12897;50.812;4.430;2023-06-04T15:36:48;24.10;50.80
24800;DHT22;12897;50.812;4.430;2023-06-04T15:39:16;24.10;50.30
24800;DHT22;12897;50.812;4.430;2023-06-04T15:41:46;24.10;51.30
24800;DHT22;12897;50.812;4.430;2023-06-04T15:44:13;24.00;50.40
24800;DHT22;12897;50.812;4.430;2023-06-04T15:46:40;23.90;49.80
24800;DHT22;12897;50.812;4.430;2023-06-04T15:49:08;23.80;49.40
24800;DHT22;12897;50.812;4.430;2023-06-04T15:51:36;23.90;49.70
24800;DHT22;12897;50.812;4.430;2023-06-04T15:54:04;24.10;50.20
24800;DHT22;12897;50.812;4.430;2023-06-04T15:56:34;24.30;49.20
24800;DHT22;12897;50.812;4.430;2023-06-04T15:59:04;24.10;48.40
24800;DHT22;12897;50.812;4.430;2023-06-04T16:01:32;24.10;48.30